sensor_id;sensor_type;location;lat;lon;timestamp;P1;durP1;ratioP1;P2;durP2;ratioP2
53843;SDS011;39744;53.314;5.710;2022-12-18T00:01:41;114.25;;;37.03;;
53843;SDS011;39744;53.314;5.710;2022-12-18T00:04:07;113.05;;;34.88;;
53843;SDS011;39744;53.314;5.710;2022-12-18T00:06:43;111.07;;;36.00;;
53843;SDS011;39744;53.314;5.710;2022-12-18T00:09:09;111.65;;;37.20;;
53843;SDS011;39744;53.314;5.710;2022-12-18T00:11:35;106.68;;;34.83;;
53843;SDS011;39744;53.314;5.710;2022-12-18T00:14:01;118.15;;;36.53;;
53843;SDS011;39744;53.314;5.710;2022-12-18T00:16:27;122.40;;;37.40;;
53843;SDS011;39744;53.314;5.710;2022-12-18T00:18:54;109.95;;;34.30;;
53843;SDS011;39744;53.314;5.710;2022-12-18T00:21:24;106.97;;;36.53;;
53843;SDS011;39744;53.314;5.710;2022-12-18T00:23:50;100.72;;;34.70;;
53843;SDS011;39744;53.314;5.710;2022-12-18T00:26:17;106.65;;;35.20;;
53843;SDS011;39744;53.314;5.710;2022-12-18T00:28:48;112.60;;;35.97;;
53843;SDS011;39744;53.314;5.710;2022-12-18T00:31:15;118.18;;;39.42;;
53843;SDS011;39744;53.314;5.710;2022-12-18T00:33:42;108.68;;;36.83;;
53843;SDS011;39744;53.314;5.710;2022-12-18T00:36:10;111.28;;;36.75;;
53843;SDS011;39744;53.314;5.710;2022-12-18T00:38:37;109.15;;;37.22;;
53843;SDS011;39744;53.314;5.710;2022-12-18T00:41:03;107.35;;;36.40;;
53843;SDS011;39744;53.314;5.710;2022-12-18T00:43:30;126.80;;;39.28;;
53843;SDS011;39744;53.314;5.710;2022-12-18T00:45:58;112.82;;;37.67;;
53843;SDS011;39744;53.314;5.710;2022-12-18T00:48:24;114.55;;;35.80;;
53843;SDS011;39744;53.314;5.710;2022-12-18T00:50:50;112.50;;;37.17;;
53843;SDS011;39744;53.314;5.710;2022-12-18T00:53:16;121.70;;;38.55;;
53843;SDS011;39744;53.314;5.710;2022-12-18T00:55:43;103.95;;;35.33;;
53843;SDS011;39744;53.314;5.710;2022-12-18T00:58:09;113.90;;;36.65;;
53843;SDS011;39744;53.314;5.710;2022-12-18T01:00:35;115.07;;;35.60;;
53843;SDS011;39744;53.314;5.710;2022-12-18T01:03:01;106.45;;;36.30;;
53843;SDS011;39744;53.314;5.710;2022-12-18T01:05:27;110.00;;;38.88;;
53843;SDS011;39744;53.314;5.710;2022-12-18T01:07:53;111.75;;;37.65;;
53843;SDS011;39744;53.314;5.710;2022-12-18T01:10:18;125.45;;;39.25;;
53843;SDS011;39744;53.314;5.710;2022-12-18T01:12:44;107.15;;;36.53;;
53843;SDS011;39744;53.314;5.710;2022-12-18T01:15:10;112.53;;;37.35;;
53843;SDS011;39744;53.314;5.710;2022-12-18T01:17:37;109.93;;;36.22;;
53843;SDS011;39744;53.314;5.710;2022-12-18T01:20:03;109.65;;;35.50;;
53843;SDS011;39744;53.314;5.710;2022-12-18T01:22:29;110.40;;;36.17;;
53843;SDS011;39744;53.314;5.710;2022-12-18T01:24:54;111.97;;;35.60;;
53843;SDS011;39744;53.314;5.710;2022-12-18T01:27:20;108.72;;;35.72;;
53843;SDS011;39744;53.314;5.710;2022-12-18T01:29:46;117.18;;;37.38;;
53843;SDS011;39744;53.314;5.710;2022-12-18T01:32:11;112.78;;;36.15;;
53843;SDS011;39744;53.314;5.710;2022-12-18T01:34:37;111.97;;;35.80;;
53843;SDS011;39744;53.314;5.710;2022-12-18T01:37:06;114.93;;;36.22;;
53843;SDS011;39744;53.314;5.710;2022-12-18T01:39:32;109.22;;;35.90;;
53843;SDS011;39744;53.314;5.710;2022-12-18T01:41:58;106.47;;;36.75;;
53843;SDS011;39744;53.314;5.710;2022-12-18T01:47:24;117.38;;;35.83;;
53843;SDS011;39744;53.314;5.710;2022-12-18T01:49:50;110.53;;;36.80;;
53843;SDS011;39744;53.314;5.710;2022-12-18T01:52:17;113.75;;;36.70;;
53843;SDS011;39744;53.314;5.710;2022-12-18T01:54:45;109.60;;;35.80;;
53843;SDS011;39744;53.314;5.710;2022-12-18T01:57:12;101.05;;;32.90;;
53843;SDS011;39744;53.314;5.710;2022-12-18T01:59:37;104.85;;;34.97;;
53843;SDS011;39744;53.314;5.710;2022-12-18T02:02:06;105.78;;;34.15;;
53843;SDS011;39744;53.314;5.710;2022-12-18T02:04:33;108.75;;;36.22;;
53843;SDS011;39744;53.314;5.710;2022-12-18T02:09:59;105.53;;;34.17;;
53843;SDS011;39744;53.314;5.710;2022-12-18T02:12:39;90.60;;;31.50;;
53843;SDS011;39744;53.314;5.710;2022-12-18T02:15:13;99.63;;;33.78;;
53843;SDS011;39744;53.314;5.710;2022-12-18T02:17:47;92.15;;;32.75;;
53843;SDS011;39744;53.314;5.710;2022-12-18T02:20:28;95.50;;;31.48;;
53843;SDS011;39744;53.314;5.710;2022-12-18T02:25:51;94.20;;;33.65;;
53843;SDS011;39744;53.314;5.710;2022-12-18T02:28:28;91.32;;;31.48;;
53843;SDS011;39744;53.314;5.710;2022-12-18T02:30:59;96.67;;;32.53;;
53843;SDS011;39744;53.314;5.710;2022-12-18T02:33:27;87.15;;;30.33;;
53843;SDS011;39744;53.314;5.710;2022-12-18T02:35:55;89.53;;;28.67;;
53843;SDS011;39744;53.314;5.710;2022-12-18T02:38:23;81.90;;;28.23;;
53843;SDS011;39744;53.314;5.710;2022-12-18T02:40:50;87.85;;;29.42;;
53843;SDS011;39744;53.314;5.710;2022-12-18T02:43:18;81.88;;;28.00;;
53843;SDS011;39744;53.314;5.710;2022-12-18T02:45:48;88.03;;;29.13;;
53843;SDS011;39744;53.314;5.710;2022-12-18T02:48:22;83.60;;;29.65;;
53843;SDS011;39744;53.314;5.710;2022-12-18T02:51:21;81.82;;;29.10;;
53843;SDS011;39744;53.314;5.710;2022-12-18T02:54:07;85.25;;;29.35;;
53843;SDS011;39744;53.314;5.710;2022-12-18T02:56:39;90.28;;;29.75;;
53843;SDS011;39744;53.314;5.710;2022-12-18T02:59:14;81.10;;;30.02;;
53843;SDS011;39744;53.314;5.710;2022-12-18T03:04:37;92.03;;;31.70;;
53843;SDS011;39744;53.314;5.710;2022-12-18T03:07:16;91.63;;;31.23;;
53843;SDS011;39744;53.314;5.710;2022-12-18T03:09:47;84.78;;;29.85;;
53843;SDS011;39744;53.314;5.710;2022-12-18T03:15:04;81.13;;;29.80;;
53843;SDS011;39744;53.314;5.710;2022-12-18T03:17:42;82.15;;;28.20;;
53843;SDS011;39744;53.314;5.710;2022-12-18T03:20:15;86.63;;;29.98;;
53843;SDS011;39744;53.314;5.710;2022-12-18T03:25:13;84.55;;;29.95;;
53843;SDS011;39744;53.314;5.710;2022-12-18T03:27:41;90.57;;;31.13;;
53843;SDS011;39744;53.314;5.710;2022-12-18T03:30:13;86.82;;;28.75;;
53843;SDS011;39744;53.314;5.710;2022-12-18T03:32:42;92.85;;;30.17;;
53843;SDS011;39744;53.314;5.710;2022-12-18T03:35:31;89.95;;;29.40;;
53843;SDS011;39744;53.314;5.710;2022-12-18T03:38:00;88.65;;;29.05;;
53843;SDS011;39744;53.314;5.710;2022-12-18T03:40:31;90.95;;;29.02;;
53843;SDS011;39744;53.314;5.710;2022-12-18T03:43:08;92.65;;;29.20;;
53843;SDS011;39744;53.314;5.710;2022-12-18T03:46:05;89.90;;;29.20;;
53843;SDS011;39744;53.314;5.710;2022-12-18T03:48:41;89.35;;;29.38;;
53843;SDS011;39744;53.314;5.710;2022-12-18T03:51:15;88.68;;;29.50;;
53843;SDS011;39744;53.314;5.710;2022-12-18T03:56:28;100.22;;;30.65;;
53843;SDS011;39744;53.314;5.710;2022-12-18T03:58:57;91.10;;;31.35;;
53843;SDS011;39744;53.314;5.710;2022-12-18T04:01:27;88.53;;;28.88;;
53843;SDS011;39744;53.314;5.710;2022-12-18T04:03:57;87.32;;;28.95;;
53843;SDS011;39744;53.314;5.710;2022-12-18T04:06:26;97.30;;;30.30;;
53843;SDS011;39744;53.314;5.710;2022-12-18T04:08:53;94.75;;;30.73;;
53843;SDS011;39744;53.314;5.710;2022-12-18T04:11:19;92.05;;;29.70;;
53843;SDS011;39744;53.314;5.710;2022-12-18T04:13:45;89.50;;;29.20;;
53843;SDS011;39744;53.314;5.710;2022-12-18T04:16:11;82.05;;;28.67;;
53843;SDS011;39744;53.314;5.710;2022-12-18T04:18:36;86.65;;;28.50;;
53843;SDS011;39744;53.314;5.710;2022-12-18T04:21:02;91.15;;;29.48;;
53843;SDS011;39744;53.314;5.710;2022-12-18T04:23:28;98.07;;;29.48;;
53843;SDS011;39744;53.314;5.710;2022-12-18T04:25:54;85.25;;;28.48;;
53843;SDS011;39744;53.314;5.710;2022-12-18T04:28:19;87.90;;;29.00;;
53843;SDS011;39744;53.314;5.710;2022-12-18T04:30:45;87.07;;;29.13;;
53843;SDS011;39744;53.314;5.710;2022-12-18T04:33:11;91.20;;;31.48;;
53843;SDS011;39744;53.314;5.710;2022-12-18T04:35:38;89.85;;;30.00;;
53843;SDS011;39744;53.314;5.710;2022-12-18T04:38:05;103.43;;;30.92;;
53843;SDS011;39744;53.314;5.710;2022-12-18T04:40:33;89.13;;;29.27;;
53843;SDS011;39744;53.314;5.710;2022-12-18T04:42:59;95.05;;;28.23;;
53843;SDS011;39744;53.314;5.710;2022-12-18T04:45:24;87.90;;;29.20;;
53843;SDS011;39744;53.314;5.710;2022-12-18T04:47:50;94.28;;;31.08;;
53843;SDS011;39744;53.314;5.710;2022-12-18T04:50:16;97.07;;;31.40;;
53843;SDS011;39744;53.314;5.710;2022-12-18T04:52:41;98.97;;;31.08;;
53843;SDS011;39744;53.314;5.710;2022-12-18T04:55:07;90.70;;;29.77;;
53843;SDS011;39744;53.314;5.710;2022-12-18T04:57:33;89.78;;;28.60;;
53843;SDS011;39744;53.314;5.710;2022-12-18T04:59:59;90.60;;;30.67;;
53843;SDS011;39744;53.314;5.710;2022-12-18T05:02:24;92.22;;;28.13;;
53843;SDS011;39744;53.314;5.710;2022-12-18T05:04:50;92.55;;;30.25;;
53843;SDS011;39744;53.314;5.710;2022-12-18T05:07:16;87.93;;;28.90;;
53843;SDS011;39744;53.314;5.710;2022-12-18T05:09:41;91.55;;;30.00;;
53843;SDS011;39744;53.314;5.710;2022-12-18T05:12:07;89.35;;;29.05;;
53843;SDS011;39744;53.314;5.710;2022-12-18T05:14:32;88.90;;;29.45;;
53843;SDS011;39744;53.314;5.710;2022-12-18T05:16:58;89.93;;;28.35;;
53843;SDS011;39744;53.314;5.710;2022-12-18T05:19:24;96.47;;;31.75;;
53843;SDS011;39744;53.314;5.710;2022-12-18T05:21:49;90.55;;;29.40;;
53843;SDS011;39744;53.314;5.710;2022-12-18T05:24:15;90.80;;;29.05;;
53843;SDS011;39744;53.314;5.710;2022-12-18T05:26:41;81.45;;;27.63;;
53843;SDS011;39744;53.314;5.710;2022-12-18T05:29:06;80.85;;;28.48;;
53843;SDS011;39744;53.314;5.710;2022-12-18T05:31:32;87.05;;;30.27;;
53843;SDS011;39744;53.314;5.710;2022-12-18T05:33:58;80.65;;;27.77;;
53843;SDS011;39744;53.314;5.710;2022-12-18T05:36:23;83.93;;;29.90;;
53843;SDS011;39744;53.314;5.710;2022-12-18T05:38:49;90.55;;;30.33;;
53843;SDS011;39744;53.314;5.710;2022-12-18T05:41:14;85.60;;;29.55;;
53843;SDS011;39744;53.314;5.710;2022-12-18T05:43:40;91.40;;;28.95;;
53843;SDS011;39744;53.314;5.710;2022-12-18T05:46:07;86.35;;;28.75;;
53843;SDS011;39744;53.314;5.710;2022-12-18T05:48:36;74.85;;;26.92;;
53843;SDS011;39744;53.314;5.710;2022-12-18T05:51:05;82.15;;;27.90;;
53843;SDS011;39744;53.314;5.710;2022-12-18T05:53:32;91.75;;;28.02;;
53843;SDS011;39744;53.314;5.710;2022-12-18T05:55:59;72.07;;;26.90;;
53843;SDS011;39744;53.314;5.710;2022-12-18T05:58:26;74.18;;;26.13;;
53843;SDS011;39744;53.314;5.710;2022-12-18T06:00:52;81.28;;;28.30;;
53843;SDS011;39744;53.314;5.710;2022-12-18T06:03:18;77.30;;;26.27;;
53843;SDS011;39744;53.314;5.710;2022-12-18T06:05:44;82.38;;;28.02;;
53843;SDS011;39744;53.314;5.710;2022-12-18T06:08:11;81.78;;;26.73;;
53843;SDS011;39744;53.314;5.710;2022-12-18T06:10:37;82.43;;;26.02;;
53843;SDS011;39744;53.314;5.710;2022-12-18T06:13:04;76.00;;;27.30;;
53843;SDS011;39744;53.314;5.710;2022-12-18T06:15:30;89.25;;;28.83;;
53843;SDS011;39744;53.314;5.710;2022-12-18T06:17:56;78.22;;;28.45;;
53843;SDS011;39744;53.314;5.710;2022-12-18T06:20:22;68.47;;;26.25;;
53843;SDS011;39744;53.314;5.710;2022-12-18T06:22:47;75.88;;;26.17;;
53843;SDS011;39744;53.314;5.710;2022-12-18T06:25:13;78.85;;;26.13;;
53843;SDS011;39744;53.314;5.710;2022-12-18T06:27:39;81.68;;;25.38;;
53843;SDS011;39744;53.314;5.710;2022-12-18T06:30:05;77.45;;;26.15;;
53843;SDS011;39744;53.314;5.710;2022-12-18T06:32:31;66.85;;;24.88;;
53843;SDS011;39744;53.314;5.710;2022-12-18T06:34:57;70.85;;;26.23;;
53843;SDS011;39744;53.314;5.710;2022-12-18T06:37:23;76.75;;;27.25;;
53843;SDS011;39744;53.314;5.710;2022-12-18T06:39:54;74.88;;;25.65;;
53843;SDS011;39744;53.314;5.710;2022-12-18T06:42:21;65.13;;;24.38;;
53843;SDS011;39744;53.314;5.710;2022-12-18T06:44:47;67.82;;;25.35;;
53843;SDS011;39744;53.314;5.710;2022-12-18T06:47:13;72.15;;;25.55;;
53843;SDS011;39744;53.314;5.710;2022-12-18T06:49:38;66.53;;;24.52;;
53843;SDS011;39744;53.314;5.710;2022-12-18T06:52:04;73.50;;;24.90;;
53843;SDS011;39744;53.314;5.710;2022-12-18T06:54:30;71.85;;;23.60;;
53843;SDS011;39744;53.314;5.710;2022-12-18T06:56:55;65.28;;;25.73;;
53843;SDS011;39744;53.314;5.710;2022-12-18T06:59:21;64.60;;;22.85;;
53843;SDS011;39744;53.314;5.710;2022-12-18T07:01:47;68.28;;;24.42;;
53843;SDS011;39744;53.314;5.710;2022-12-18T07:04:12;60.85;;;22.17;;
53843;SDS011;39744;53.314;5.710;2022-12-18T07:06:38;59.75;;;22.30;;
53843;SDS011;39744;53.314;5.710;2022-12-18T07:09:03;63.25;;;21.67;;
53843;SDS011;39744;53.314;5.710;2022-12-18T07:11:29;64.03;;;23.38;;
53843;SDS011;39744;53.314;5.710;2022-12-18T07:13:58;59.80;;;21.60;;
53843;SDS011;39744;53.314;5.710;2022-12-18T07:16:24;57.22;;;21.90;;
53843;SDS011;39744;53.314;5.710;2022-12-18T07:18:50;54.22;;;22.75;;
53843;SDS011;39744;53.314;5.710;2022-12-18T07:21:17;52.78;;;21.95;;
53843;SDS011;39744;53.314;5.710;2022-12-18T07:23:44;62.40;;;21.85;;
53843;SDS011;39744;53.314;5.710;2022-12-18T07:26:13;55.50;;;21.77;;
53843;SDS011;39744;53.314;5.710;2022-12-18T07:28:39;51.55;;;22.00;;
53843;SDS011;39744;53.314;5.710;2022-12-18T07:31:07;51.70;;;20.90;;
53843;SDS011;39744;53.314;5.710;2022-12-18T07:33:35;52.42;;;19.98;;
53843;SDS011;39744;53.314;5.710;2022-12-18T07:36:01;48.00;;;19.20;;
53843;SDS011;39744;53.314;5.710;2022-12-18T07:38:28;47.95;;;19.20;;
53843;SDS011;39744;53.314;5.710;2022-12-18T07:40:55;53.78;;;19.20;;
53843;SDS011;39744;53.314;5.710;2022-12-18T07:43:26;54.17;;;19.25;;
53843;SDS011;39744;53.314;5.710;2022-12-18T07:45:51;45.20;;;18.95;;
53843;SDS011;39744;53.314;5.710;2022-12-18T07:48:17;57.28;;;20.30;;
53843;SDS011;39744;53.314;5.710;2022-12-18T07:50:42;51.88;;;19.67;;
53843;SDS011;39744;53.314;5.710;2022-12-18T07:53:08;51.53;;;20.35;;
53843;SDS011;39744;53.314;5.710;2022-12-18T07:55:34;50.05;;;18.38;;
53843;SDS011;39744;53.314;5.710;2022-12-18T07:58:03;52.25;;;19.67;;
53843;SDS011;39744;53.314;5.710;2022-12-18T08:00:29;47.22;;;19.23;;
53843;SDS011;39744;53.314;5.710;2022-12-18T08:02:55;46.47;;;17.58;;
53843;SDS011;39744;53.314;5.710;2022-12-18T08:05:21;48.50;;;18.55;;
53843;SDS011;39744;53.314;5.710;2022-12-18T08:07:47;42.67;;;18.38;;
53843;SDS011;39744;53.314;5.710;2022-12-18T08:10:13;49.47;;;18.65;;
53843;SDS011;39744;53.314;5.710;2022-12-18T08:12:39;42.90;;;17.27;;
53843;SDS011;39744;53.314;5.710;2022-12-18T08:15:05;45.75;;;17.17;;
53843;SDS011;39744;53.314;5.710;2022-12-18T08:17:31;47.63;;;16.95;;
53843;SDS011;39744;53.314;5.710;2022-12-18T08:19:56;42.92;;;17.63;;
53843;SDS011;39744;53.314;5.710;2022-12-18T08:22:22;43.85;;;18.27;;
53843;SDS011;39744;53.314;5.710;2022-12-18T08:24:48;40.92;;;16.98;;
53843;SDS011;39744;53.314;5.710;2022-12-18T08:27:13;43.33;;;17.55;;
53843;SDS011;39744;53.314;5.710;2022-12-18T08:29:39;43.47;;;16.85;;
53843;SDS011;39744;53.314;5.710;2022-12-18T08:32:05;44.70;;;17.98;;
53843;SDS011;39744;53.314;5.710;2022-12-18T08:34:31;41.65;;;16.95;;
53843;SDS011;39744;53.314;5.710;2022-12-18T08:36:56;40.78;;;16.73;;
53843;SDS011;39744;53.314;5.710;2022-12-18T08:39:22;38.42;;;16.10;;
53843;SDS011;39744;53.314;5.710;2022-12-18T08:41:48;45.67;;;19.17;;
53843;SDS011;39744;53.314;5.710;2022-12-18T08:44:33;40.33;;;16.67;;
53843;SDS011;39744;53.314;5.710;2022-12-18T08:47:02;44.72;;;17.80;;
53843;SDS011;39744;53.314;5.710;2022-12-18T08:49:28;41.03;;;16.17;;
53843;SDS011;39744;53.314;5.710;2022-12-18T08:51:54;38.00;;;16.50;;
53843;SDS011;39744;53.314;5.710;2022-12-18T08:54:22;41.15;;;16.58;;
53843;SDS011;39744;53.314;5.710;2022-12-18T08:56:47;44.60;;;16.40;;
53843;SDS011;39744;53.314;5.710;2022-12-18T08:59:14;37.70;;;16.73;;
53843;SDS011;39744;53.314;5.710;2022-12-18T09:01:40;40.47;;;17.20;;
53843;SDS011;39744;53.314;5.710;2022-12-18T09:04:07;42.92;;;17.13;;
53843;SDS011;39744;53.314;5.710;2022-12-18T09:06:33;39.55;;;16.80;;
53843;SDS011;39744;53.314;5.710;2022-12-18T09:08:59;41.35;;;17.55;;
53843;SDS011;39744;53.314;5.710;2022-12-18T09:11:25;43.97;;;17.13;;
53843;SDS011;39744;53.314;5.710;2022-12-18T09:13:52;42.95;;;17.27;;
53843;SDS011;39744;53.314;5.710;2022-12-18T09:16:19;36.03;;;15.88;;
53843;SDS011;39744;53.314;5.710;2022-12-18T09:18:45;37.58;;;16.33;;
53843;SDS011;39744;53.314;5.710;2022-12-18T09:21:12;34.08;;;15.52;;
53843;SDS011;39744;53.314;5.710;2022-12-18T09:23:43;35.90;;;15.65;;
53843;SDS011;39744;53.314;5.710;2022-12-18T09:26:09;40.40;;;16.20;;
53843;SDS011;39744;53.314;5.710;2022-12-18T09:28:35;36.53;;;15.50;;
53843;SDS011;39744;53.314;5.710;2022-12-18T09:31:03;33.45;;;14.65;;
53843;SDS011;39744;53.314;5.710;2022-12-18T09:33:31;33.78;;;15.07;;
53843;SDS011;39744;53.314;5.710;2022-12-18T09:35:57;37.97;;;15.65;;
53843;SDS011;39744;53.314;5.710;2022-12-18T09:38:25;31.00;;;14.27;;
53843;SDS011;39744;53.314;5.710;2022-12-18T09:40:52;33.63;;;14.80;;
53843;SDS011;39744;53.314;5.710;2022-12-18T09:43:29;31.77;;;14.52;;
53843;SDS011;39744;53.314;5.710;2022-12-18T09:46:08;31.67;;;13.82;;
53843;SDS011;39744;53.314;5.710;2022-12-18T09:48:41;32.15;;;14.18;;
53843;SDS011;39744;53.314;5.710;2022-12-18T09:51:22;30.63;;;14.13;;
53843;SDS011;39744;53.314;5.710;2022-12-18T09:54:03;31.85;;;12.98;;
53843;SDS011;39744;53.314;5.710;2022-12-18T09:56:34;27.88;;;13.23;;
53843;SDS011;39744;53.314;5.710;2022-12-18T09:59:03;28.00;;;12.45;;
53843;SDS011;39744;53.314;5.710;2022-12-18T10:01:29;29.23;;;13.40;;
53843;SDS011;39744;53.314;5.710;2022-12-18T10:03:56;30.58;;;12.95;;
53843;SDS011;39744;53.314;5.710;2022-12-18T10:06:35;30.80;;;12.93;;
53843;SDS011;39744;53.314;5.710;2022-12-18T10:09:41;26.13;;;12.88;;
53843;SDS011;39744;53.314;5.710;2022-12-18T10:17:44;26.40;;;12.30;;
53843;SDS011;39744;53.314;5.710;2022-12-18T10:20:34;28.45;;;12.20;;
53843;SDS011;39744;53.314;5.710;2022-12-18T10:25:53;22.85;;;11.48;;
53843;SDS011;39744;53.314;5.710;2022-12-18T10:28:37;29.35;;;12.00;;
53843;SDS011;39744;53.314;5.710;2022-12-18T10:31:05;24.90;;;11.90;;
53843;SDS011;39744;53.314;5.710;2022-12-18T10:33:32;27.25;;;11.52;;
53843;SDS011;39744;53.314;5.710;2022-12-18T10:35:58;24.45;;;12.43;;
53843;SDS011;39744;53.314;5.710;2022-12-18T10:38:29;29.63;;;11.63;;
53843;SDS011;39744;53.314;5.710;2022-12-18T10:48:36;22.90;;;10.65;;
53843;SDS011;39744;53.314;5.710;2022-12-18T10:53:56;22.42;;;11.25;;
53843;SDS011;39744;53.314;5.710;2022-12-18T10:56:27;25.00;;;11.30;;
53843;SDS011;39744;53.314;5.710;2022-12-18T10:58:55;23.35;;;10.75;;
53843;SDS011;39744;53.314;5.710;2022-12-18T11:04:25;22.75;;;10.18;;
53843;SDS011;39744;53.314;5.710;2022-12-18T11:06:57;20.00;;;9.95;;
53843;SDS011;39744;53.314;5.710;2022-12-18T11:11:59;20.90;;;9.90;;
53843;SDS011;39744;53.314;5.710;2022-12-18T11:14:28;20.10;;;9.82;;
53843;SDS011;39744;53.314;5.710;2022-12-18T11:16:57;20.90;;;9.82;;
53843;SDS011;39744;53.314;5.710;2022-12-18T11:19:32;19.92;;;9.80;;
53843;SDS011;39744;53.314;5.710;2022-12-18T11:22:50;19.85;;;9.45;;
53843;SDS011;39744;53.314;5.710;2022-12-18T11:24:52;18.75;;;8.60;;
53843;SDS011;39744;53.314;5.710;2022-12-18T11:27:22;19.15;;;9.32;;
53843;SDS011;39744;53.314;5.710;2022-12-18T11:29:49;19.98;;;8.88;;
53843;SDS011;39744;53.314;5.710;2022-12-18T11:32:24;17.70;;;8.93;;
53843;SDS011;39744;53.314;5.710;2022-12-18T11:41:00;18.98;;;8.43;;
53843;SDS011;39744;53.314;5.710;2022-12-18T11:44:09;14.23;;;7.15;;
53843;SDS011;39744;53.314;5.710;2022-12-18T11:46:43;17.13;;;8.55;;
53843;SDS011;39744;53.314;5.710;2022-12-18T11:49:19;14.38;;;7.45;;
53843;SDS011;39744;53.314;5.710;2022-12-18T11:51:58;15.27;;;6.78;;
53843;SDS011;39744;53.314;5.710;2022-12-18T11:54:41;14.70;;;6.78;;
53843;SDS011;39744;53.314;5.710;2022-12-18T11:57:14;17.55;;;7.10;;
53843;SDS011;39744;53.314;5.710;2022-12-18T11:59:55;14.30;;;6.88;;
53843;SDS011;39744;53.314;5.710;2022-12-18T12:02:57;14.95;;;6.95;;
53843;SDS011;39744;53.314;5.710;2022-12-18T12:05:41;16.77;;;7.82;;
53843;SDS011;39744;53.314;5.710;2022-12-18T12:11:13;13.63;;;6.75;;
53843;SDS011;39744;53.314;5.710;2022-12-18T12:16:35;12.63;;;7.05;;
53843;SDS011;39744;53.314;5.710;2022-12-18T12:19:16;13.93;;;7.55;;
53843;SDS011;39744;53.314;5.710;2022-12-18T12:22:09;14.82;;;7.47;;
53843;SDS011;39744;53.314;5.710;2022-12-18T12:27:36;14.63;;;6.72;;
53843;SDS011;39744;53.314;5.710;2022-12-18T12:36:03;13.27;;;6.88;;
53843;SDS011;39744;53.314;5.710;2022-12-18T12:38:44;14.63;;;6.82;;
53843;SDS011;39744;53.314;5.710;2022-12-18T12:41:17;13.13;;;6.65;;
53843;SDS011;39744;53.314;5.710;2022-12-18T12:44:05;17.88;;;7.53;;
53843;SDS011;39744;53.314;5.710;2022-12-18T12:46:35;14.23;;;7.03;;
53843;SDS011;39744;53.314;5.710;2022-12-18T12:49:04;14.13;;;7.05;;
53843;SDS011;39744;53.314;5.710;2022-12-18T12:51:39;13.38;;;6.70;;
53843;SDS011;39744;53.314;5.710;2022-12-18T12:54:21;13.77;;;6.88;;
53843;SDS011;39744;53.314;5.710;2022-12-18T12:57:05;15.80;;;7.20;;
53843;SDS011;39744;53.314;5.710;2022-12-18T13:02:35;12.70;;;6.70;;
53843;SDS011;39744;53.314;5.710;2022-12-18T13:07:50;14.52;;;6.70;;
53843;SDS011;39744;53.314;5.710;2022-12-18T13:12:51;12.40;;;6.55;;
53843;SDS011;39744;53.314;5.710;2022-12-18T13:15:45;12.88;;;6.30;;
53843;SDS011;39744;53.314;5.710;2022-12-18T13:18:16;14.75;;;7.40;;
53843;SDS011;39744;53.314;5.710;2022-12-18T13:20:50;13.52;;;6.72;;
53843;SDS011;39744;53.314;5.710;2022-12-18T13:25:47;13.95;;;7.32;;
53843;SDS011;39744;53.314;5.710;2022-12-18T13:28:17;13.43;;;6.50;;
53843;SDS011;39744;53.314;5.710;2022-12-18T13:30:51;17.48;;;7.57;;
53843;SDS011;39744;53.314;5.710;2022-12-18T13:38:20;14.20;;;6.65;;
53843;SDS011;39744;53.314;5.710;2022-12-18T13:46:01;12.13;;;7.00;;
53843;SDS011;39744;53.314;5.710;2022-12-18T13:48:47;14.02;;;7.07;;
53843;SDS011;39744;53.314;5.710;2022-12-18T13:51:23;14.32;;;7.25;;
53843;SDS011;39744;53.314;5.710;2022-12-18T13:53:51;13.63;;;6.95;;
53843;SDS011;39744;53.314;5.710;2022-12-18T13:56:24;12.20;;;6.45;;
53843;SDS011;39744;53.314;5.710;2022-12-18T13:59:12;13.10;;;6.50;;
53843;SDS011;39744;53.314;5.710;2022-12-18T14:01:46;16.55;;;7.07;;
53843;SDS011;39744;53.314;5.710;2022-12-18T14:07:01;13.52;;;7.22;;
53843;SDS011;39744;53.314;5.710;2022-12-18T14:09:31;13.27;;;6.22;;
53843;SDS011;39744;53.314;5.710;2022-12-18T14:12:01;11.20;;;6.20;;
53843;SDS011;39744;53.314;5.710;2022-12-18T14:14:47;14.00;;;6.22;;
53843;SDS011;39744;53.314;5.710;2022-12-18T14:17:15;11.38;;;5.90;;
53843;SDS011;39744;53.314;5.710;2022-12-18T14:19:45;13.73;;;6.15;;
53843;SDS011;39744;53.314;5.710;2022-12-18T14:22:17;12.48;;;6.03;;
53843;SDS011;39744;53.314;5.710;2022-12-18T14:25:04;13.40;;;6.25;;
53843;SDS011;39744;53.314;5.710;2022-12-18T14:27:43;11.88;;;6.63;;
53843;SDS011;39744;53.314;5.710;2022-12-18T14:30:24;11.57;;;6.25;;
53843;SDS011;39744;53.314;5.710;2022-12-18T14:33:30;9.65;;;5.68;;
53843;SDS011;39744;53.314;5.710;2022-12-18T14:36:00;10.43;;;5.70;;
53843;SDS011;39744;53.314;5.710;2022-12-18T14:43:34;13.52;;;6.13;;
53843;SDS011;39744;53.314;5.710;2022-12-18T14:46:01;11.80;;;5.15;;
53843;SDS011;39744;53.314;5.710;2022-12-18T14:48:36;10.57;;;5.13;;
53843;SDS011;39744;53.314;5.710;2022-12-18T14:53:36;11.27;;;5.10;;
53843;SDS011;39744;53.314;5.710;2022-12-18T14:56:22;10.18;;;4.95;;
53843;SDS011;39744;53.314;5.710;2022-12-18T14:58:59;11.73;;;4.90;;
53843;SDS011;39744;53.314;5.710;2022-12-18T15:01:33;8.88;;;4.63;;
53843;SDS011;39744;53.314;5.710;2022-12-18T15:04:02;10.15;;;4.93;;
53843;SDS011;39744;53.314;5.710;2022-12-18T15:06:36;10.18;;;4.85;;
53843;SDS011;39744;53.314;5.710;2022-12-18T15:09:05;9.10;;;5.30;;
53843;SDS011;39744;53.314;5.710;2022-12-18T15:11:48;8.65;;;4.60;;
53843;SDS011;39744;53.314;5.710;2022-12-18T15:14:22;10.50;;;5.10;;
53843;SDS011;39744;53.314;5.710;2022-12-18T15:16:50;11.02;;;5.47;;
53843;SDS011;39744;53.314;5.710;2022-12-18T15:19:17;10.43;;;5.07;;
53843;SDS011;39744;53.314;5.710;2022-12-18T15:21:43;10.05;;;4.85;;
53843;SDS011;39744;53.314;5.710;2022-12-18T15:24:20;13.15;;;5.38;;
53843;SDS011;39744;53.314;5.710;2022-12-18T15:26:51;11.23;;;5.47;;
53843;SDS011;39744;53.314;5.710;2022-12-18T15:29:20;8.20;;;4.85;;
53843;SDS011;39744;53.314;5.710;2022-12-18T15:32:02;13.80;;;6.13;;
53843;SDS011;39744;53.314;5.710;2022-12-18T15:34:30;10.27;;;6.15;;
53843;SDS011;39744;53.314;5.710;2022-12-18T15:36:57;12.65;;;5.65;;
53843;SDS011;39744;53.314;5.710;2022-12-18T15:39:23;10.63;;;5.70;;
53843;SDS011;39744;53.314;5.710;2022-12-18T15:41:48;14.40;;;6.57;;
53843;SDS011;39744;53.314;5.710;2022-12-18T15:44:33;10.73;;;5.03;;
53843;SDS011;39744;53.314;5.710;2022-12-18T15:46:59;9.55;;;5.00;;
53843;SDS011;39744;53.314;5.710;2022-12-18T15:49:24;10.45;;;5.30;;
53843;SDS011;39744;53.314;5.710;2022-12-18T15:51:54;10.88;;;5.53;;
53843;SDS011;39744;53.314;5.710;2022-12-18T15:54:23;10.32;;;5.05;;
53843;SDS011;39744;53.314;5.710;2022-12-18T15:57:08;12.32;;;5.72;;
53843;SDS011;39744;53.314;5.710;2022-12-18T15:59:51;10.70;;;5.40;;
53843;SDS011;39744;53.314;5.710;2022-12-18T16:02:18;11.85;;;5.82;;
53843;SDS011;39744;53.314;5.710;2022-12-18T16:04:45;10.52;;;5.68;;
53843;SDS011;39744;53.314;5.710;2022-12-18T16:07:13;15.13;;;5.70;;
53843;SDS011;39744;53.314;5.710;2022-12-18T16:09:40;12.77;;;5.68;;
53843;SDS011;39744;53.314;5.710;2022-12-18T16:12:08;12.40;;;5.38;;
53843;SDS011;39744;53.314;5.710;2022-12-18T16:14:42;12.50;;;5.20;;
53843;SDS011;39744;53.314;5.710;2022-12-18T16:17:09;11.50;;;5.47;;